sensor_id;sensor_type;location;lat;lon;timestamp;temperature;humidity
19174;DHT22;9719;49.322;8.536;2023-05-15T00:04:10;14.90;99.90
19174;DHT22;9719;49.322;8.536;2023-05-15T00:09:12;15.00;99.90
19174;DHT22;9719;49.322;8.536;2023-05-15T00:14:14;14.90;99.90
19174;DHT22;9719;49.322;8.536;2023-05-15T00:19:17;14.90;99.90
19174;DHT22;9719;49.322;8.536;2023-05-15T00:24:20;14.80;99.90
19174;DHT22;9719;49.322;8.536;2023-05-15T00:29:21;14.70;99.90
19174;DHT22;9719;49.322;8.536;2023-05-15T00:34:25;14.60;99.90
19174;DHT22;9719;49.322;8.536;2023-05-15T00:39:26;14.60;99.90
19174;DHT22;9719;49.322;8.536;2023-05-15T00:44:30;14.60;99.90
19174;DHT22;9719;49.322;8.536;2023-05-15T00:49:33;14.60;99.90
19174;DHT22;9719;49.322;8.536;2023-05-15T00:54:36;14.50;99.90
19174;DHT22;9719;49.322;8.536;2023-05-15T00:59:38;14.50;99.90
19174;DHT22;9719;49.322;8.536;2023-05-15T01:04:42;14.40;99.90
19174;DHT22;9719;49.322;8.536;2023-05-15T01:09:45;14.30;99.90
19174;DHT22;9719;49.322;8.536;2023-05-15T01:14:50;14.30;99.90
19174;DHT22;9719;49.322;8.536;2023-05-15T01:19:54;14.20;99.90
19174;DHT22;9719;49.322;8.536;2023-05-15T01:25:15;14.20;99.90
19174;DHT22;9719;49.322;8.536;2023-05-15T01:30:27;14.20;99.90
19174;DHT22;9719;49.322;8.536;2023-05-15T01:35:32;14.10;99.90
19174;DHT22;9719;49.322;8.536;2023-05-15T01:40:36;14.10;99.90
19174;DHT22;9719;49.322;8.536;2023-05-15T01:45:42;14.10;99.90
19174;DHT22;9719;49.322;8.536;2023-05-15T01:50:47;14.10;99.90
19174;DHT22;9719;49.322;8.536;2023-05-15T01:55:50;14.10;99.90
19174;DHT22;9719;49.322;8.536;2023-05-15T02:00:55;14.10;99.90
19174;DHT22;9719;49.322;8.536;2023-05-15T02:05:56;14.10;99.90
19174;DHT22;9719;49.322;8.536;2023-05-15T02:10:59;14.00;99.90
19174;DHT22;9719;49.322;8.536;2023-05-15T02:16:03;14.00;99.90
19174;DHT22;9719;49.322;8.536;2023-05-15T02:21:05;13.90;99.90
19174;DHT22;9719;49.322;8.536;2023-05-15T02:26:17;13.90;99.90
19174;DHT22;9719;49.322;8.536;2023-05-15T02:31:29;13.80;99.90
19174;DHT22;9719;49.322;8.536;2023-05-15T02:36:33;13.80;99.90
19174;DHT22;9719;49.322;8.536;2023-05-15T02:41:38;13.70;99.90
19174;DHT22;9719;49.322;8.536;2023-05-15T02:46:42;13.70;99.90
19174;DHT22;9719;49.322;8.536;2023-05-15T02:51:44;13.60;99.90
19174;DHT22;9719;49.322;8.536;2023-05-15T02:56:46;13.60;99.90
19174;DHT22;9719;49.322;8.536;2023-05-15T03:01:49;13.50;99.90
19174;DHT22;9719;49.322;8.536;2023-05-15T03:06:50;13.40;99.90
19174;DHT22;9719;49.322;8.536;2023-05-15T03:11:52;13.40;99.90
19174;DHT22;9719;49.322;8.536;2023-05-15T03:16:55;13.40;99.90
19174;DHT22;9719;49.322;8.536;2023-05-15T03:21:57;13.40;99.90
19174;DHT22;9719;49.322;8.536;2023-05-15T03:26:58;13.40;99.90
19174;DHT22;9719;49.322;8.536;2023-05-15T03:32:01;13.40;99.90
19174;DHT22;9719;49.322;8.536;2023-05-15T03:37:03;13.40;99.90
19174;DHT22;9719;49.322;8.536;2023-05-15T03:42:05;13.40;99.90
19174;DHT22;9719;49.322;8.536;2023-05-15T03:47:08;13.40;99.90
19174;DHT22;9719;49.322;8.536;2023-05-15T03:52:10;13.50;99.90
19174;DHT22;9719;49.322;8.536;2023-05-15T03:57:12;13.60;99.90
19174;DHT22;9719;49.322;8.536;2023-05-15T04:02:15;13.60;99.90
19174;DHT22;9719;49.322;8.536;2023-05-15T04:07:17;13.60;99.90
19174;DHT22;9719;49.322;8.536;2023-05-15T04:12:18;13.70;99.90
19174;DHT22;9719;49.322;8.536;2023-05-15T04:17:22;13.70;99.90
19174;DHT22;9719;49.322;8.536;2023-05-15T04:22:23;13.70;99.90
19174;DHT22;9719;49.322;8.536;2023-05-15T04:27:25;13.70;99.90
19174;DHT22;9719;49.322;8.536;2023-05-15T04:32:29;13.70;99.90
19174;DHT22;9719;49.322;8.536;2023-05-15T04:37:31;13.80;99.90
19174;DHT22;9719;49.322;8.536;2023-05-15T04:42:33;13.80;99.90
19174;DHT22;9719;49.322;8.536;2023-05-15T04:47:36;13.90;99.90
19174;DHT22;9719;49.322;8.536;2023-05-15T04:52:38;13.90;99.90
19174;DHT22;9719;49.322;8.536;2023-05-15T04:57:39;14.00;99.90
19174;DHT22;9719;49.322;8.536;2023-05-15T05:02:42;14.00;99.90
19174;DHT22;9719;49.322;8.536;2023-05-15T05:07:44;14.20;99.90
19174;DHT22;9719;49.322;8.536;2023-05-15T05:12:46;14.30;99.90
19174;DHT22;9719;49.322;8.536;2023-05-15T05:17:49;14.50;99.90
19174;DHT22;9719;49.322;8.536;2023-05-15T05:22:51;14.80;99.90
19174;DHT22;9719;49.322;8.536;2023-05-15T05:27:53;15.10;99.90
19174;DHT22;9719;49.322;8.536;2023-05-15T05:32:56;15.40;99.90
19174;DHT22;9719;49.322;8.536;2023-05-15T05:37:57;15.70;99.90
19174;DHT22;9719;49.322;8.536;2023-05-15T05:42:59;16.00;99.90
19174;DHT22;9719;49.322;8.536;2023-05-15T05:48:02;16.20;99.90
19174;DHT22;9719;49.322;8.536;2023-05-15T05:53:04;16.30;99.90
19174;DHT22;9719;49.322;8.536;2023-05-15T05:58:06;16.60;99.90
19174;DHT22;9719;49.322;8.536;2023-05-15T06:03:09;16.90;99.90
19174;DHT22;9719;49.322;8.536;2023-05-15T06:08:10;17.10;99.90
19174;DHT22;9719;49.322;8.536;2023-05-15T06:13:12;17.20;99.90
19174;DHT22;9719;49.322;8.536;2023-05-15T06:18:16;17.50;99.90
19174;DHT22;9719;49.322;8.536;2023-05-15T06:23:17;17.70;99.90
19174;DHT22;9719;49.322;8.536;2023-05-15T06:28:19;17.90;99.90
19174;DHT22;9719;49.322;8.536;2023-05-15T06:33:23;18.30;99.90
19174;DHT22;9719;49.322;8.536;2023-05-15T06:38:24;18.20;99.90
19174;DHT22;9719;49.322;8.536;2023-05-15T06:43:26;18.40;99.90
19174;DHT22;9719;49.322;8.536;2023-05-15T06:48:29;18.30;99.90
19174;DHT22;9719;49.322;8.536;2023-05-15T06:53:31;18.20;99.90
19174;DHT22;9719;49.322;8.536;2023-05-15T06:58:32;18.20;99.90
19174;DHT22;9719;49.322;8.536;2023-05-15T07:03:35;18.30;99.90
19174;DHT22;9719;49.322;8.536;2023-05-15T07:08:37;18.50;99.90
19174;DHT22;9719;49.322;8.536;2023-05-15T07:13:39;18.70;99.90
19174;DHT22;9719;49.322;8.536;2023-05-15T07:18:42;19.20;99.90
19174;DHT22;9719;49.322;8.536;2023-05-15T07:23:43;19.80;99.90
19174;DHT22;9719;49.322;8.536;2023-05-15T07:28:45;20.20;99.90
19174;DHT22;9719;49.322;8.536;2023-05-15T07:33:48;20.20;99.90
19174;DHT22;9719;49.322;8.536;2023-05-15T07:38:50;19.90;99.90
19174;DHT22;9719;49.322;8.536;2023-05-15T07:43:51;19.80;99.90
19174;DHT22;9719;49.322;8.536;2023-05-15T07:48:54;19.70;99.90
19174;DHT22;9719;49.322;8.536;2023-05-15T07:53:56;19.70;99.90
19174;DHT22;9719;49.322;8.536;2023-05-15T07:58:58;19.70;99.90
19174;DHT22;9719;49.322;8.536;2023-05-15T08:04:01;19.80;99.90
19174;DHT22;9719;49.322;8.536;2023-05-15T08:09:02;20.00;99.90
19174;DHT22;9719;49.322;8.536;2023-05-15T08:14:04;20.40;99.90
19174;DHT22;9719;49.322;8.536;2023-05-15T08:19:07;20.60;99.90
19174;DHT22;9719;49.322;8.536;2023-05-15T08:24:09;20.80;99.90
19174;DHT22;9719;49.322;8.536;2023-05-15T08:29:11;21.10;99.90
19174;DHT22;9719;49.322;8.536;2023-05-15T08:34:14;21.30;99.90
19174;DHT22;9719;49.322;8.536;2023-05-15T08:39:15;21.50;99.90
19174;DHT22;9719;49.322;8.536;2023-05-15T08:44:18;21.80;99.90
19174;DHT22;9719;49.322;8.536;2023-05-15T08:49:31;22.00;98.90
19174;DHT22;9719;49.322;8.536;2023-05-15T08:54:34;22.00;95.90
19174;DHT22;9719;49.322;8.536;2023-05-15T08:59:36;22.10;95.80
19174;DHT22;9719;49.322;8.536;2023-05-15T09:04:39;22.20;95.10
19174;DHT22;9719;49.322;8.536;2023-05-15T09:09:41;22.30;93.80
19174;DHT22;9719;49.322;8.536;2023-05-15T09:14:44;22.00;92.50
19174;DHT22;9719;49.322;8.536;2023-05-15T09:19:48;22.00;93.20
19174;DHT22;9719;49.322;8.536;2023-05-15T09:24:50;22.30;93.20
19174;DHT22;9719;49.322;8.536;2023-05-15T09:29:52;22.40;92.90
19174;DHT22;9719;49.322;8.536;2023-05-15T09:34:57;22.50;93.20
19174;DHT22;9719;49.322;8.536;2023-05-15T09:40:09;22.50;92.00
19174;DHT22;9719;49.322;8.536;2023-05-15T09:45:16;22.70;92.40
19174;DHT22;9719;49.322;8.536;2023-05-15T09:50:21;22.70;91.50
19174;DHT22;9719;49.322;8.536;2023-05-15T09:55:23;22.80;92.40
19174;DHT22;9719;49.322;8.536;2023-05-15T10:00:28;23.00;91.00
19174;DHT22;9719;49.322;8.536;2023-05-15T10:05:32;23.00;89.00
19174;DHT22;9719;49.322;8.536;2023-05-15T10:10:34;23.00;89.30
19174;DHT22;9719;49.322;8.536;2023-05-15T10:15:36;23.00;89.20
19174;DHT22;9719;49.322;8.536;2023-05-15T10:20:40;23.10;86.60
19174;DHT22;9719;49.322;8.536;2023-05-15T10:25:49;23.30;89.60
19174;DHT22;9719;49.322;8.536;2023-05-15T10:30:53;23.50;87.10
19174;DHT22;9719;49.322;8.536;2023-05-15T10:35:58;23.10;83.70
19174;DHT22;9719;49.322;8.536;2023-05-15T10:41:00;23.10;82.10
19174;DHT22;9719;49.322;8.536;2023-05-15T10:46:04;23.20;82.60
19174;DHT22;9719;49.322;8.536;2023-05-15T10:51:14;23.30;82.20
19174;DHT22;9719;49.322;8.536;2023-05-15T10:56:16;23.60;78.50
19174;DHT22;9719;49.322;8.536;2023-05-15T11:01:25;24.00;84.00
19174;DHT22;9719;49.322;8.536;2023-05-15T11:06:28;24.30;80.60
19174;DHT22;9719;49.322;8.536;2023-05-15T11:11:53;24.60;78.40
19174;DHT22;9719;49.322;8.536;2023-05-15T11:17:00;24.90;77.80
19174;DHT22;9719;49.322;8.536;2023-05-15T11:22:17;25.20;78.20
19174;DHT22;9719;49.322;8.536;2023-05-15T11:27:21;25.30;76.40
19174;DHT22;9719;49.322;8.536;2023-05-15T11:38:01;26.10;74.00
19174;DHT22;9719;49.322;8.536;2023-05-15T11:43:06;26.60;73.90
19174;DHT22;9719;49.322;8.536;2023-05-15T11:48:12;26.70;74.40
19174;DHT22;9719;49.322;8.536;2023-05-15T11:53:17;26.70;72.30
19174;DHT22;9719;49.322;8.536;2023-05-15T11:58:20;26.60;73.40
19174;DHT22;9719;49.322;8.536;2023-05-15T12:03:23;26.50;69.00
19174;DHT22;9719;49.322;8.536;2023-05-15T12:08:30;26.10;70.80
19174;DHT22;9719;49.322;8.536;2023-05-15T12:13:33;26.10;70.60
19174;DHT22;9719;49.322;8.536;2023-05-15T12:18:35;26.10;70.00
19174;DHT22;9719;49.322;8.536;2023-05-15T12:23:38;25.90;66.50
19174;DHT22;9719;49.322;8.536;2023-05-15T12:28:39;25.50;64.50
19174;DHT22;9719;49.322;8.536;2023-05-15T12:33:42;25.70;67.70
19174;DHT22;9719;49.322;8.536;2023-05-15T12:38:45;26.00;67.30
19174;DHT22;9719;49.322;8.536;2023-05-15T12:43:47;26.10;65.20
19174;DHT22;9719;49.322;8.536;2023-05-15T12:48:49;25.80;65.80
19174;DHT22;9719;49.322;8.536;2023-05-15T12:53:53;25.90;64.50
19174;DHT22;9719;49.322;8.536;2023-05-15T12:58:56;26.10;65.30
19174;DHT22;9719;49.322;8.536;2023-05-15T13:03:58;26.40;66.70
19174;DHT22;9719;49.322;8.536;2023-05-15T13:09:01;26.60;65.60
19174;DHT22;9719;49.322;8.536;2023-05-15T13:14:08;26.90;66.30
19174;DHT22;9719;49.322;8.536;2023-05-15T13:19:10;27.10;65.00
19174;DHT22;9719;49.322;8.536;2023-05-15T13:24:14;27.40;65.80
19174;DHT22;9719;49.322;8.536;2023-05-15T13:29:16;27.50;66.30
19174;DHT22;9719;49.322;8.536;2023-05-15T13:34:18;27.80;63.60
19174;DHT22;9719;49.322;8.536;2023-05-15T13:39:21;27.90;62.40
19174;DHT22;9719;49.322;8.536;2023-05-15T13:44:23;27.70;61.70
19174;DHT22;9719;49.322;8.536;2023-05-15T13:49:25;27.40;61.30
19174;DHT22;9719;49.322;8.536;2023-05-15T13:54:28;27.00;62.00
19174;DHT22;9719;49.322;8.536;2023-05-15T13:59:29;26.40;62.00
19174;DHT22;9719;49.322;8.536;2023-05-15T14:04:31;26.30;63.30
19174;DHT22;9719;49.322;8.536;2023-05-15T14:09:34;26.30;62.90
19174;DHT22;9719;49.322;8.536;2023-05-15T14:14:36;26.40;62.20
19174;DHT22;9719;49.322;8.536;2023-05-15T14:19:38;26.50;64.00
19174;DHT22;9719;49.322;8.536;2023-05-15T14:24:41;26.40;61.50
19174;DHT22;9719;49.322;8.536;2023-05-15T14:29:43;26.40;60.90
19174;DHT22;9719;49.322;8.536;2023-05-15T14:34:45;26.50;62.50
19174;DHT22;9719;49.322;8.536;2023-05-15T14:39:48;26.40;63.20
19174;DHT22;9719;49.322;8.536;2023-05-15T14:44:49;25.90;63.70
19174;DHT22;9719;49.322;8.536;2023-05-15T14:49:51;25.10;63.60
19174;DHT22;9719;49.322;8.536;2023-05-15T14:54:54;24.30;63.90
19174;DHT22;9719;49.322;8.536;2023-05-15T14:59:56;23.80;64.90
19174;DHT22;9719;49.322;8.536;2023-05-15T15:04:57;23.50;66.50
19174;DHT22;9719;49.322;8.536;2023-05-15T15:10:00;23.40;67.40
19174;DHT22;9719;49.322;8.536;2023-05-15T15:15:02;23.10;68.60
19174;DHT22;9719;49.322;8.536;2023-05-15T15:20:05;22.90;69.20
19174;DHT22;9719;49.322;8.536;2023-05-15T15:25:09;22.70;69.30
19174;DHT22;9719;49.322;8.536;2023-05-15T15:30:11;22.50;69.40
19174;DHT22;9719;49.322;8.536;2023-05-15T15:35:13;22.30;71.60
19174;DHT22;9719;49.322;8.536;2023-05-15T15:40:16;22.20;73.50
19174;DHT22;9719;49.322;8.536;2023-05-15T15:45:18;22.10;73.10
19174;DHT22;9719;49.322;8.536;2023-05-15T15:50:19;21.90;73.50
19174;DHT22;9719;49.322;8.536;2023-05-15T15:55:22;21.60;72.90
19174;DHT22;9719;49.322;8.536;2023-05-15T16:00:24;21.30;75.10
19174;DHT22;9719;49.322;8.536;2023-05-15T16:05:26;20.90;78.00
19174;DHT22;9719;49.322;8.536;2023-05-15T16:10:29;20.50;80.60
19174;DHT22;9719;49.322;8.536;2023-05-15T16:15:31;20.10;82.40
19174;DHT22;9719;49.322;8.536;2023-05-15T16:20:32;19.90;85.30
19174;DHT22;9719;49.322;8.536;2023-05-15T16:25:35;19.80;87.90
19174;DHT22;9719;49.322;8.536;2023-05-15T16:30:37;19.70;90.30
19174;DHT22;9719;49.322;8.536;2023-05-15T16:35:39;19.60;90.90
19174;DHT22;9719;49.322;8.536;2023-05-15T16:40:42;19.50;91.40
19174;DHT22;9719;49.322;8.536;2023-05-15T16:45:43;19.30;92.10
19174;DHT22;9719;49.322;8.536;2023-05-15T16:50:45;19.10;93.40
19174;DHT22;9719;49.322;8.536;2023-05-15T16:55:48;18.90;94.40
19174;DHT22;9719;49.322;8.536;2023-05-15T17:00:50;18.80;95.30
19174;DHT22;9719;49.322;8.536;2023-05-15T17:05:52;18.80;96.70
19174;DHT22;9719;49.322;8.536;2023-05-15T17:10:55;18.80;97.70
19174;DHT22;9719;49.322;8.536;2023-05-15T17:15:56;18.90;98.70
19174;DHT22;9719;49.322;8.536;2023-05-15T17:20:58;18.90;99.40
19174;DHT22;9719;49.322;8.536;2023-05-15T17:26:01;18.90;99.90
19174;DHT22;9719;49.322;8.536;2023-05-15T17:31:07;18.90;99.90
19174;DHT22;9719;49.322;8.536;2023-05-15T17:36:09;18.90;99.90
19174;DHT22;9719;49.322;8.536;2023-05-15T17:41:12;18.80;99.90
19174;DHT22;9719;49.322;8.536;2023-05-15T17:46:14;18.80;99.90
19174;DHT22;9719;49.322;8.536;2023-05-15T17:51:16;18.80;99.90
19174;DHT22;9719;49.322;8.536;2023-05-15T17:56:19;18.80;99.90
19174;DHT22;9719;49.322;8.536;2023-05-15T18:01:21;18.90;99.90
19174;DHT22;9719;49.322;8.536;2023-05-15T18:06:22;18.90;99.90
19174;DHT22;9719;49.322;8.536;2023-05-15T18:11:25;18.90;99.90
19174;DHT22;9719;49.322;8.536;2023-05-15T18:16:27;18.90;99.90
19174;DHT22;9719;49.322;8.536;2023-05-15T18:21:30;18.80;99.90
19174;DHT22;9719;49.322;8.536;2023-05-15T18:26:33;18.70;99.90
19174;DHT22;9719;49.322;8.536;2023-05-15T18:31:35;18.70;99.90
19174;DHT22;9719;49.322;8.536;2023-05-15T18:36:37;18.60;99.90
19174;DHT22;9719;49.322;8.536;2023-05-15T18:41:40;18.50;99.90
19174;DHT22;9719;49.322;8.536;2023-05-15T18:46:41;18.40;99.90
19174;DHT22;9719;49.322;8.536;2023-05-15T18:51:43;18.30;99.90
19174;DHT22;9719;49.322;8.536;2023-05-15T18:56:46;18.20;99.90
19174;DHT22;9719;49.322;8.536;2023-05-15T19:01:48;18.20;99.90
19174;DHT22;9719;49.322;8.536;2023-05-15T19:06:49;18.10;99.90
19174;DHT22;9719;49.322;8.536;2023-05-15T19:11:53;18.00;99.90
19174;DHT22;9719;49.322;8.536;2023-05-15T19:16:54;18.00;99.90
19174;DHT22;9719;49.322;8.536;2023-05-15T19:21:56;17.90;99.90
19174;DHT22;9719;49.322;8.536;2023-05-15T19:26:59;17.90;99.90
19174;DHT22;9719;49.322;8.536;2023-05-15T19:32:01;17.80;99.90
19174;DHT22;9719;49.322;8.536;2023-05-15T19:37:03;17.80;99.90
19174;DHT22;9719;49.322;8.536;2023-05-15T19:42:06;17.80;99.90
19174;DHT22;9719;49.322;8.536;2023-05-15T19:47:08;17.80;99.90
19174;DHT22;9719;49.322;8.536;2023-05-15T19:52:09;17.70;99.90
19174;DHT22;9719;49.322;8.536;2023-05-15T19:57:12;17.70;99.90
19174;DHT22;9719;49.322;8.536;2023-05-15T20:02:14;17.60;99.90
19174;DHT22;9719;49.322;8.536;2023-05-15T20:07:16;17.50;99.90
19174;DHT22;9719;49.322;8.536;2023-05-15T20:12:19;17.40;99.90
19174;DHT22;9719;49.322;8.536;2023-05-15T20:17:21;17.30;99.90
19174;DHT22;9719;49.322;8.536;2023-05-15T20:22:23;17.30;99.90
19174;DHT22;9719;49.322;8.536;2023-05-15T20:27:26;17.20;99.90
19174;DHT22;9719;49.322;8.536;2023-05-15T20:32:28;17.10;99.90
19174;DHT22;9719;49.322;8.536;2023-05-15T20:37:30;17.10;99.90
19174;DHT22;9719;49.322;8.536;2023-05-15T20:42:34;17.00;99.90
19174;DHT22;9719;49.322;8.536;2023-05-15T20:47:35;16.90;99.90
19174;DHT22;9719;49.322;8.536;2023-05-15T20:52:37;16.70;99.90
19174;DHT22;9719;49.322;8.536;2023-05-15T20:57:40;16.60;99.90
19174;DHT22;9719;49.322;8.536;2023-05-15T21:02:43;16.50;99.90
19174;DHT22;9719;49.322;8.536;2023-05-15T21:07:45;16.40;99.90
19174;DHT22;9719;49.322;8.536;2023-05-15T21:12:48;16.20;99.90
19174;DHT22;9719;49.322;8.536;2023-05-15T21:17:50;16.10;99.90
19174;DHT22;9719;49.322;8.536;2023-05-15T21:22:54;16.00;99.90
19174;DHT22;9719;49.322;8.536;2023-05-15T21:27:57;16.00;99.90
19174;DHT22;9719;49.322;8.536;2023-05-15T21:32:59;15.90;99.90
19174;DHT22;9719;49.322;8.536;2023-05-15T21:38:00;16.00;99.90
19174;DHT22;9719;49.322;8.536;2023-05-15T21:43:03;16.00;99.90
19174;DHT22;9719;49.322;8.536;2023-05-15T21:48:05;16.00;99.90
19174;DHT22;9719;49.322;8.536;2023-05-15T21:53:07;16.00;99.90
19174;DHT22;9719;49.322;8.536;2023-05-15T21:58:10;16.00;99.90
19174;DHT22;9719;49.322;8.536;2023-05-15T22:03:11;16.00;99.90
19174;DHT22;9719;49.322;8.536;2023-05-15T22:08:13;16.00;99.90
19174;DHT22;9719;49.322;8.536;2023-05-15T22:13:16;16.00;99.90
19174;DHT22;9719;49.322;8.536;2023-05-15T22:18:18;16.00;99.90
19174;DHT22;9719;49.322;8.536;2023-05-15T22:23:20;16.00;99.90
19174;DHT22;9719;49.322;8.536;2023-05-15T22:28:23;16.00;99.90
19174;DHT22;9719;49.322;8.536;2023-05-15T22:33:25;16.00;99.90
19174;DHT22;9719;49.322;8.536;2023-05-15T22:38:27;15.90;99.90
19174;DHT22;9719;49.322;8.536;2023-05-15T22:43:30;15.90;99.90
19174;DHT22;9719;49.322;8.536;2023-05-15T22:48:31;15.90;99.90
19174;DHT22;9719;49.322;8.536;2023-05-15T22:53:33;15.80;99.90
19174;DHT22;9719;49.322;8.536;2023-05-15T22:58:36;15.80;99.90
19174;DHT22;9719;49.322;8.536;2023-05-15T23:03:38;15.80;99.90
19174;DHT22;9719;49.322;8.536;2023-05-15T23:08:39;15.80;99.90
19174;DHT22;9719;49.322;8.536;2023-05-15T23:13:42;15.70;99.90
19174;DHT22;9719;49.322;8.536;2023-05-15T23:18:44;15.60;99.90
19174;DHT22;9719;49.322;8.536;2023-05-15T23:23:46;15.60;99.90
19174;DHT22;9719;49.322;8.536;2023-05-15T23:28:49;15.50;99.90
19174;DHT22;9719;49.322;8.536;2023-05-15T23:33:51;15.50;99.90
19174;DHT22;9719;49.322;8.536;2023-05-15T23:38:53;15.50;99.90
19174;DHT22;9719;49.322;8.536;2023-05-15T23:43:56;15.40;99.90
19174;DHT22;9719;49.322;8.536;2023-05-15T23:48:57;15.40;99.90
19174;DHT22;9719;49.322;8.536;2023-05-15T23:53:59;15.40;99.90
19174;DHT22;9719;49.322;8.536;2023-05-15T23:59:02;15.30;99.90
